Aviation Digital Data Service (ADDS)

Output produced by TAFs form (2309 UTC 15 July 2018)
found at http://www.aviationweather.gov/adds/tafs/
 
METAR text: RJSA 152300Z 21015KT 9999 FEW020 BKN/// 26/20 Q1010
Conditions at: RJSA (AOMORI AIRPORT , JP) observed 2300 UTC 15 July 2018
Temperature: 26.0°C (79°F)
Dewpoint: 20.0°C (68°F) [RH = 70%]
Pressure (altimeter): 29.82 inches Hg (1010.0 mb)
Winds: from the SSW (210 degrees) at 17 MPH (15 knots; 7.8 m/s)
Visibility: 6 or more miles (10+ km)
Ceiling: at least 12,000 feet AGL
Clouds: few clouds at 2000 feet AGL
Weather: no significant weather observed at this time

Forecast for: RJSA (AOMORI AIRPORT , JP)
Text: TAF RJSA 151707Z 1518/1700 21013KT 9999 FEW030
Forecast period: 1800 UTC 15 July 2018 to 0000 UTC 17 July 2018
Forecast type: FROM: standard forecast or significant change
Winds: from the SSW (210 degrees) at 15 MPH (13 knots; 6.8 m/s)
Visibility: 6 or more miles (10+ km)
Clouds: few clouds at 3000 feet AGL
Weather: no significant weather forecast for this period